Time;durP1;ratioP1;P1;durP2;ratioP2;P2;SDS_P1;SDS_P2;PMS_P1;PMS_P2;Temp;Humidity;BMP_temperature;BMP_pressure;BME280_temperature;BME280_humidity;BME280_pressure;Samples;Min_cycle;Max_cycle;Signal;HPM_P1;HPM_P2
2022/12/27 00:02:59;;;;;;;83.18;27.95;;;;;;;;;;10362313;23;20015;-95
2022/12/27 00:07:04;;;;;;;69.90;22.33;;;;;;;;;;10316728;23;20038;-95
2022/12/27 00:11:08;;;;;;;71.40;20.92;;;;;;;;;;10301226;22;20125;-92
2022/12/27 00:15:13;;;;;;;60.22;21.17;;;;;;;;;;10244549;23;20028;-95
2022/12/27 00:19:17;;;;;;;61.03;18.67;;;;;;;;;;10246886;23;20017;-95
2022/12/27 00:23:22;;;;;;;57.65;19.60;;;;;;;;;;10254835;23;20023;-94
2022/12/27 00:27:25;;;;;;;69.85;22.88;;;;;;;;;;10252426;23;20083;-94
2022/12/27 00:31:34;;;;;;;63.55;22.00;;;;;;;;;;10251612;23;20028;-95
2022/12/27 00:35:39;;;;;;;94.03;29.42;;;;;;;;;;10249813;23;20333;-94
2022/12/27 00:39:42;;;;;;;63.05;20.48;;;;;;;;;;10249167;23;20017;-95
2022/12/27 00:43:46;;;;;;;69.43;19.60;;;;;;;;;;10249325;23;20071;-94
2022/12/27 00:47:50;;;;;;;53.08;18.63;;;;;;;;;;10246522;23;20021;-94
2022/12/27 00:52:44;;;;;;;57.20;21.85;;;;;;;;;;10277546;23;20008;-94
2022/12/27 00:57:46;;;;;;;;;;;;;;;;;;10286402;23;20012;-94
2022/12/27 01:03:08;;;;;;;38.90;14.35;;;;;;;;;;10169370;23;20454;-95
2022/12/27 01:08:01;;;;;;;28.02;10.65;;;;;;;;;;9992355;23;20094;-96
2022/12/27 01:12:06;;;;;;;47.50;17.02;;;;;;;;;;9937916;23;20027;-95
2022/12/27 01:16:11;;;;;;;45.15;17.15;;;;;;;;;;9968878;23;20028;-95
2022/12/27 01:20:16;;;;;;;45.33;16.90;;;;;;;;;;9974849;23;20035;-95
2022/12/27 01:24:29;;;;;;;42.20;16.42;;;;;;;;;;9958145;23;20319;-94
2022/12/27 01:28:35;;;;;;;48.13;17.77;;;;;;;;;;9954079;23;20031;-95
2022/12/27 01:32:41;;;;;;;40.05;16.25;;;;;;;;;;9946743;23;20087;-96
2022/12/27 01:46:43;;;;;;;30.92;12.90;;;;;;;;;;10248795;23;20052;-95
2022/12/27 01:56:00;;;;;;;23.80;12.52;;;;;;;;;;10255350;23;20031;-94
2022/12/27 02:26:29;;;;;;;10.23;6.28;;;;;;;;;;10204078;23;20024;-94
2022/12/27 02:30:57;;;;;;;9.55;4.82;;;;;;;;;;10178944;23;20021;-95
2022/12/27 02:35:19;;;;;;;10.85;4.57;;;;;;;;;;10183263;23;20017;-95
2022/12/27 02:54:17;;;;;;;7.65;4.05;;;;;;;;;;10211747;23;20045;-94
2022/12/27 02:58:33;;;;;;;9.35;4.80;;;;;;;;;;10211228;23;20017;-96
2022/12/27 03:03:23;;;;;;;;;;;;;;;;;;10208985;23;20018;-92
2022/12/27 03:16:23;;;;;;;7.88;4.53;;;;;;;;;;10193623;23;20075;-95
2022/12/27 03:38:33;;;;;;;3.85;2.45;;;;;;;;;;10312348;23;20020;-94
2022/12/27 03:47:55;;;;;;;4.38;2.33;;;;;;;;;;10320866;23;20021;-92
2022/12/27 03:52:27;;;;;;;3.28;2.47;;;;;;;;;;10311643;23;20020;-92
2022/12/27 03:57:34;;;;;;;6.00;3.25;;;;;;;;;;10313439;23;20020;-95
2022/12/27 04:01:45;;;;;;;5.20;3.00;;;;;;;;;;10210725;23;20040;-95
2022/12/27 04:37:21;;;;;;;;;;;;;;;;;;;;;
2022/12/27 05:04:15;;;;;;;4.82;2.72;;;;;;;;;;10266264;23;20353;-95
2022/12/27 05:18:01;;;;;;;9.40;4.50;;;;;;;;;;10272466;23;20091;-96
2022/12/27 05:26:50;;;;;;;10.18;4.93;;;;;;;;;;10214344;23;20097;-95
2022/12/27 05:55:35;;;;;;;13.50;3.35;;;;;;;;;;10195024;23;20106;-93
2022/12/27 05:59:39;;;;;;;11.68;3.20;;;;;;;;;;10190029;23;20057;-93
2022/12/27 06:03:42;;;;;;;5.57;2.58;;;;;;;;;;10190883;23;20022;-94
2022/12/27 06:07:46;;;;;;;11.70;3.75;;;;;;;;;;10188136;23;20025;-94
2022/12/27 06:11:50;;;;;;;13.57;4.18;;;;;;;;;;10188451;23;20025;-93
2022/12/27 06:15:53;;;;;;;16.77;4.28;;;;;;;;;;10192799;23;20021;-94
2022/12/27 06:19:56;;;;;;;11.77;3.60;;;;;;;;;;10194405;23;20029;-95
2022/12/27 06:23:59;;;;;;;11.90;3.95;;;;;;;;;;10177499;23;20400;-94
2022/12/27 06:33:53;;;;;;;8.48;2.97;;;;;;;;;;10031011;23;20034;-93
2022/12/27 06:37:56;;;;;;;20.45;5.45;;;;;;;;;;9988353;23;20020;-93
2022/12/27 06:42:06;;;;;;;12.63;4.00;;;;;;;;;;10014035;23;20029;-94
2022/12/27 06:46:15;;;;;;;14.32;3.90;;;;;;;;;;10003630;23;20027;-95
2022/12/27 06:50:18;;;;;;;11.40;4.60;;;;;;;;;;10003850;23;20030;-95
2022/12/27 06:54:22;;;;;;;16.67;5.68;;;;;;;;;;9999677;23;20031;-95
2022/12/27 06:58:37;;;;;;;13.50;5.05;;;;;;;;;;9951850;23;20051;-95
2022/12/27 07:03:04;;;;;;;9.43;3.53;;;;;;;;;;10035131;23;20034;-96
2022/12/27 07:07:09;;;;;;;13.07;3.75;;;;;;;;;;10064965;23;20074;-95
2022/12/27 07:11:24;;;;;;;19.90;4.60;;;;;;;;;;10263770;22;20029;-94
2022/12/27 07:16:28;;;;;;;5.85;2.75;;;;;;;;;;10279180;22;20083;-93
2022/12/27 07:21:44;;;;;;;10.10;2.70;;;;;;;;;;10239062;23;20028;-94
2022/12/27 07:25:50;;;;;;;12.43;3.38;;;;;;;;;;10284455;23;20020;-94
2022/12/27 07:29:53;;;;;;;2.78;2.08;;;;;;;;;;10265948;23;20093;-92
2022/12/27 07:51:27;;;;;;;12.00;3.40;;;;;;;;;;10271677;22;20083;-96
2022/12/27 07:55:39;;;;;;;12.63;4.07;;;;;;;;;;10272537;23;20021;-96
2022/12/27 07:59:42;;;;;;;12.48;3.92;;;;;;;;;;10253261;23;20024;-94
2022/12/27 08:03:46;;;;;;;17.10;4.47;;;;;;;;;;10248315;23;20020;-94
2022/12/27 08:07:50;;;;;;;6.60;3.40;;;;;;;;;;10247632;23;20017;-96
2022/12/27 08:11:54;;;;;;;13.13;4.03;;;;;;;;;;10251421;23;20028;-96
2022/12/27 08:15:57;;;;;;;13.75;3.53;;;;;;;;;;10250848;23;20017;-96
2022/12/27 08:40:49;;;;;;;7.03;3.13;;;;;;;;;;10032173;23;20340;-94
2022/12/27 08:45:21;;;;;;;;;;;;;;;;;;9972539;23;20141;-95
2022/12/27 08:49:54;;;;;;;11.68;4.57;;;;;;;;;;10031213;23;19918;-94
2022/12/27 08:59:54;;;;;;;4.22;2.10;;;;;;;;;;9987946;23;20019;-93
2022/12/27 09:05:18;;;;;;;9.40;4.13;;;;;;;;;;9988131;23;20063;-95
2022/12/27 09:15:24;;;;;;;11.13;3.88;;;;;;;;;;10024001;23;20403;-91
2022/12/27 09:56:14;;;;;;;6.53;2.45;;;;;;;;;;10489261;22;20015;-96
2022/12/27 11:20:50;;;;;;;8.05;3.65;;;;;;;;;;10124701;23;20407;-95
2022/12/27 11:25:40;;;;;;;5.45;3.50;;;;;;;;;;10120985;23;20038;-96
2022/12/27 12:29:42;;;;;;;12.80;3.78;;;;;;;;;;10308572;23;20040;-93
2022/12/27 12:50:09;;;;;;;7.15;3.10;;;;;;;;;;10561752;22;20021;-95
2022/12/27 12:54:33;;;;;;;8.15;3.20;;;;;;;;;;10534692;22;20021;-95
2022/12/27 12:58:49;;;;;;;9.90;3.92;;;;;;;;;;10561371;22;20029;-95
2022/12/27 13:03:46;;;;;;;7.50;3.63;;;;;;;;;;10563772;22;20022;-94
2022/12/27 13:08:42;;;;;;;7.55;3.00;;;;;;;;;;10562262;22;20015;-96
2022/12/27 13:27:11;;;;;;;9.82;4.85;;;;;;;;;;10575367;22;20033;-94
2022/12/27 13:31:40;;;;;;;12.15;3.78;;;;;;;;;;10539148;22;20026;-94
2022/12/27 13:36:13;;;;;;;7.95;4.18;;;;;;;;;;10571474;22;20154;-94
2022/12/27 13:46:32;;;;;;;6.88;3.08;;;;;;;;;;10519566;22;20041;-95
2022/12/27 13:55:58;;;;;;;8.15;3.10;;;;;;;;;;10571402;22;20022;-92
2022/12/27 14:00:30;;;;;;;9.18;3.85;;;;;;;;;;10539123;22;20015;-95
2022/12/27 14:05:16;;;;;;;8.85;5.25;;;;;;;;;;10568619;22;20017;-95
2022/12/27 14:09:47;;;;;;;10.30;4.32;;;;;;;;;;10542033;22;20010;-95
2022/12/27 14:13:53;;;;;;;5.40;2.45;;;;;;;;;;10558716;22;20025;-96
2022/12/27 14:23:47;;;;;;;14.80;3.75;;;;;;;;;;10496565;22;20082;-95
2022/12/27 14:28:44;;;;;;;7.68;3.17;;;;;;;;;;10510172;22;20019;-95
2022/12/27 14:33:15;;;;;;;6.63;2.90;;;;;;;;;;10397323;22;20079;-95
2022/12/27 14:37:38;;;;;;;9.93;3.90;;;;;;;;;;10502880;22;20025;-94
2022/12/27 14:42:31;;;;;;;6.18;3.47;;;;;;;;;;10521223;22;20089;-95
2022/12/27 14:52:39;;;;;;;8.73;4.55;;;;;;;;;;10471315;22;20071;-95
2022/12/27 14:56:57;;;;;;;9.10;3.47;;;;;;;;;;10346558;23;20475;-93
2022/12/27 15:01:12;;;;;;;7.15;3.08;;;;;;;;;;10354688;23;20016;-94
2022/12/27 15:05:45;;;;;;;9.55;3.95;;;;;;;;;;10349159;23;20016;-95
2022/12/27 15:14:54;;;;;;;14.70;4.60;;;;;;;;;;10468337;22;20029;-96
2022/12/27 15:19:23;;;;;;;4.05;2.80;;;;;;;;;;10398615;22;20085;-95
2022/12/27 15:42:53;;;;;;;7.43;3.08;;;;;;;;;;10371406;22;20062;-94
2022/12/27 15:47:47;;;;;;;9.95;4.60;;;;;;;;;;10378395;22;20023;-95
2022/12/27 15:52:44;;;;;;;9.52;4.40;;;;;;;;;;10505179;22;20084;-96
2022/12/27 15:57:41;;;;;;;7.82;3.88;;;;;;;;;;10489754;22;20019;-96
2022/12/27 16:02:09;;;;;;;6.13;3.25;;;;;;;;;;10508075;22;20030;-95
2022/12/27 16:16:18;;;;;;;11.02;5.07;;;;;;;;;;10508913;22;20019;-95
2022/12/27 16:20:39;;;;;;;13.23;3.92;;;;;;;;;;10527355;22;20038;-94
2022/12/27 16:25:11;;;;;;;11.02;5.18;;;;;;;;;;10452535;22;20030;-95
2022/12/27 17:23:12;;;;;;;20.33;8.05;;;;;;;;;;8504370;27;20137;-94
2022/12/27 17:28:32;;;;;;;17.80;6.85;;;;;;;;;;8495683;27;20056;-94
2022/12/27 17:33:16;;;;;;;13.15;5.82;;;;;;;;;;8509399;27;20116;-94
2022/12/27 17:37:50;;;;;;;14.98;5.82;;;;;;;;;;8500102;27;20523;-94
2022/12/27 18:01:06;;;;;;;15.38;5.63;;;;;;;;;;8502750;28;20058;-94
2022/12/27 18:05:16;;;;;;;10.43;4.93;;;;;;;;;;8502756;28;20052;-94
2022/12/27 18:09:33;;;;;;;13.23;5.28;;;;;;;;;;8517004;27;20058;-93
2022/12/27 19:26:11;;;;;;;12.85;4.75;;;;;;;;;;8065257;29;20061;-93
2022/12/27 19:31:16;;;;;;;6.45;3.58;;;;;;;;;;8837059;22;20040;-94
2022/12/27 19:35:56;;;;;;;11.35;4.80;;;;;;;;;;8774971;22;20124;-95
2022/12/27 19:49:47;;;;;;;14.02;5.88;;;;;;;;;;8342071;28;20029;-96
2022/12/27 19:54:15;;;;;;;15.95;6.78;;;;;;;;;;8334096;28;20079;-94
2022/12/27 20:02:43;;;;;;;15.48;6.63;;;;;;;;;;8331315;28;20112;-94
2022/12/27 20:11:20;;;;;;;14.80;6.95;;;;;;;;;;8335122;28;20049;-94
2022/12/27 20:15:53;;;;;;;10.65;5.43;;;;;;;;;;8351442;28;20045;-94
2022/12/27 20:20:13;;;;;;;13.23;6.30;;;;;;;;;;8330521;28;20050;-95
2022/12/27 20:25:01;;;;;;;24.58;10.18;;;;;;;;;;8348031;28;20077;-95
2022/12/27 20:29:13;;;;;;;20.25;7.50;;;;;;;;;;8327518;28;20053;-95
2022/12/27 20:33:25;;;;;;;21.38;8.13;;;;;;;;;;8330168;28;20041;-95
2022/12/27 20:37:52;;;;;;;24.67;9.00;;;;;;;;;;8348789;28;20132;-94
2022/12/27 20:42:43;;;;;;;20.20;8.02;;;;;;;;;;8350988;28;20060;-95
2022/12/27 20:46:49;;;;;;;11.60;5.82;;;;;;;;;;8366504;28;20047;-95
2022/12/27 20:50:56;;;;;;;7.28;3.95;;;;;;;;;;8319245;28;20057;-94
2022/12/27 20:55:16;;;;;;;18.83;7.18;;;;;;;;;;8352632;28;20076;-96
2022/12/27 20:59:48;;;;;;;18.20;8.15;;;;;;;;;;8334538;28;20061;-96
2022/12/27 21:04:04;;;;;;;16.48;7.85;;;;;;;;;;8342003;28;20052;-95
2022/12/27 21:08:14;;;;;;;25.35;9.10;;;;;;;;;;8329867;28;20064;-95
2022/12/27 21:12:51;;;;;;;24.45;10.00;;;;;;;;;;8356316;28;20105;-94
2022/12/27 21:17:12;;;;;;;15.13;7.40;;;;;;;;;;8342483;28;20105;-94
2022/12/27 21:26:18;;;;;;;20.77;9.23;;;;;;;;;;8350207;28;20038;-94
2022/12/27 21:30:43;;;;;;;22.48;9.32;;;;;;;;;;8350894;28;20054;-94
2022/12/27 21:34:48;;;;;;;20.88;8.27;;;;;;;;;;8346336;28;20046;-93
2022/12/27 21:40:03;;;;;;;27.20;11.57;;;;;;;;;;8360691;23;20045;-95
2022/12/27 21:44:11;;;;;;;38.72;14.30;;;;;;;;;;8332676;28;20140;-94
2022/12/27 21:48:28;;;;;;;36.13;14.77;;;;;;;;;;8321089;28;20058;-94
2022/12/27 21:52:38;;;;;;;29.95;11.65;;;;;;;;;;8343355;28;20049;-95
2022/12/27 21:57:04;;;;;;;21.52;10.18;;;;;;;;;;8332029;28;20109;-94
2022/12/27 22:05:52;;;;;;;23.17;10.90;;;;;;;;;;8347315;28;20048;-93
2022/12/27 22:10:55;;;;;;;24.63;10.55;;;;;;;;;;8321513;28;20062;-93
2022/12/27 22:15:35;;;;;;;26.38;10.38;;;;;;;;;;8359202;28;20088;-95
2022/12/27 22:24:04;;;;;;;20.38;9.30;;;;;;;;;;8326823;28;20050;-93
2022/12/27 22:33:43;;;;;;;13.35;6.75;;;;;;;;;;8242640;28;20066;-94
2022/12/27 22:42:38;;;;;;;16.23;6.15;;;;;;;;;;8116464;29;20067;-94
2022/12/27 22:51:24;;;;;;;13.13;7.07;;;;;;;;;;8118897;29;20125;-96
2022/12/27 22:55:44;;;;;;;15.15;7.32;;;;;;;;;;8103902;29;20053;-95
2022/12/27 23:00:01;;;;;;;15.38;6.70;;;;;;;;;;8086082;29;20184;-94
2022/12/27 23:04:24;;;;;;;17.55;7.15;;;;;;;;;;8202286;29;20079;-94
2022/12/27 23:08:29;;;;;;;13.68;6.90;;;;;;;;;;8129267;29;20064;-93
2022/12/27 23:17:01;;;;;;;15.55;7.00;;;;;;;;;;8320226;28;20049;-94
2022/12/27 23:21:34;;;;;;;16.38;8.20;;;;;;;;;;8349693;28;20057;-93
2022/12/27 23:25:47;;;;;;;15.57;7.57;;;;;;;;;;8343390;28;20073;-94
2022/12/27 23:29:50;;;;;;;8.45;4.35;;;;;;;;;;8331890;28;20046;-95
2022/12/27 23:33:56;;;;;;;18.15;7.60;;;;;;;;;;8340374;28;20077;-94
2022/12/27 23:38:02;;;;;;;12.40;6.55;;;;;;;;;;8328654;28;20041;-95
2022/12/27 23:42:15;;;;;;;16.10;7.45;;;;;;;;;;8348711;28;20092;-92
2022/12/27 23:46:33;;;;;;;11.10;6.65;;;;;;;;;;8328616;28;20046;-93
2022/12/27 23:50:37;;;;;;;16.45;8.38;;;;;;;;;;8322227;28;20045;-93
2022/12/27 23:54:44;;;;;;;21.73;7.93;;;;;;;;;;8351356;28;20481;-93
2022/12/27 23:58:56;;;;;;;13.40;6.68;;;;;;;;;;8337695;28;20041;-95
